sensor_id;sensor_type;location;lat;lon;timestamp;temperature;humidity
44111;DHT22;29774;52.664;5.074;2023-12-07T00:01:21;-3276.50;86.30
44111;DHT22;29774;52.664;5.074;2023-12-07T00:03:47;-3276.50;86.20
44111;DHT22;29774;52.664;5.074;2023-12-07T00:06:12;-3276.40;86.20
44111;DHT22;29774;52.664;5.074;2023-12-07T00:08:38;-3276.40;86.10
44111;DHT22;29774;52.664;5.074;2023-12-07T00:11:04;-3276.30;86.10
44111;DHT22;29774;52.664;5.074;2023-12-07T00:13:29;-3276.30;86.10
44111;DHT22;29774;52.664;5.074;2023-12-07T00:15:55;-3276.30;86.00
44111;DHT22;29774;52.664;5.074;2023-12-07T00:18:20;-3276.20;86.10
44111;DHT22;29774;52.664;5.074;2023-12-07T00:20:46;-3276.20;86.10
44111;DHT22;29774;52.664;5.074;2023-12-07T00:23:11;-3276.10;86.00
44111;DHT22;29774;52.664;5.074;2023-12-07T00:25:37;-3276.10;86.20
44111;DHT22;29774;52.664;5.074;2023-12-07T00:28:03;-3276.30;86.50
44111;DHT22;29774;52.664;5.074;2023-12-07T00:30:30;-3276.30;86.40
44111;DHT22;29774;52.664;5.074;2023-12-07T00:32:56;-3276.30;86.50
44111;DHT22;29774;52.664;5.074;2023-12-07T00:35:21;-3276.30;86.50
44111;DHT22;29774;52.664;5.074;2023-12-07T00:37:48;-3276.20;86.10
44111;DHT22;29774;52.664;5.074;2023-12-07T00:40:13;-3276.10;86.10
44111;DHT22;29774;52.664;5.074;2023-12-07T00:42:39;-3276.00;86.10
44111;DHT22;29774;52.664;5.074;2023-12-07T00:45:05;-3276.00;86.10
44111;DHT22;29774;52.664;5.074;2023-12-07T00:47:31;-3276.00;86.30
44111;DHT22;29774;52.664;5.074;2023-12-07T00:49:57;-3276.10;86.50
44111;DHT22;29774;52.664;5.074;2023-12-07T00:52:22;-3276.00;86.30
44111;DHT22;29774;52.664;5.074;2023-12-07T00:54:48;-3276.00;86.10
44111;DHT22;29774;52.664;5.074;2023-12-07T00:57:13;-3275.90;86.00
44111;DHT22;29774;52.664;5.074;2023-12-07T00:59:39;-3275.80;85.80
44111;DHT22;29774;52.664;5.074;2023-12-07T01:02:05;-3275.80;85.90
44111;DHT22;29774;52.664;5.074;2023-12-07T01:04:32;-3275.80;86.10
44111;DHT22;29774;52.664;5.074;2023-12-07T01:06:58;-3275.90;86.40
44111;DHT22;29774;52.664;5.074;2023-12-07T01:09:24;-3275.90;86.30
44111;DHT22;29774;52.664;5.074;2023-12-07T01:11:50;-3275.80;86.10
44111;DHT22;29774;52.664;5.074;2023-12-07T01:14:16;-3275.80;86.30
44111;DHT22;29774;52.664;5.074;2023-12-07T01:16:43;-3275.70;86.20
44111;DHT22;29774;52.664;5.074;2023-12-07T01:19:09;-3275.60;86.00
44111;DHT22;29774;52.664;5.074;2023-12-07T01:21:35;-3275.60;86.10
44111;DHT22;29774;52.664;5.074;2023-12-07T01:24:00;-3275.60;86.10
44111;DHT22;29774;52.664;5.074;2023-12-07T01:26:26;-3275.60;86.00
44111;DHT22;29774;52.664;5.074;2023-12-07T01:28:52;-3275.60;85.90
44111;DHT22;29774;52.664;5.074;2023-12-07T01:31:17;-3275.60;86.30
44111;DHT22;29774;52.664;5.074;2023-12-07T01:33:43;-3275.70;86.50
44111;DHT22;29774;52.664;5.074;2023-12-07T01:36:10;-3275.70;86.50
44111;DHT22;29774;52.664;5.074;2023-12-07T01:38:36;-3275.60;86.40
44111;DHT22;29774;52.664;5.074;2023-12-07T01:41:01;-3275.70;86.80
44111;DHT22;29774;52.664;5.074;2023-12-07T01:43:27;-3275.80;87.00
44111;DHT22;29774;52.664;5.074;2023-12-07T01:45:55;-3275.80;87.00
44111;DHT22;29774;52.664;5.074;2023-12-07T01:48:24;-3275.90;87.00
44111;DHT22;29774;52.664;5.074;2023-12-07T01:50:50;-3275.90;87.40
44111;DHT22;29774;52.664;5.074;2023-12-07T01:53:16;-3276.00;87.50
44111;DHT22;29774;52.664;5.074;2023-12-07T01:55:42;-3276.00;87.60
44111;DHT22;29774;52.664;5.074;2023-12-07T01:58:08;-3276.00;87.50
44111;DHT22;29774;52.664;5.074;2023-12-07T02:00:35;-3275.90;87.20
44111;DHT22;29774;52.664;5.074;2023-12-07T02:03:03;-3275.80;87.30
44111;DHT22;29774;52.664;5.074;2023-12-07T02:05:29;-3275.80;87.30
44111;DHT22;29774;52.664;5.074;2023-12-07T02:07:56;-3275.60;86.90
44111;DHT22;29774;52.664;5.074;2023-12-07T02:10:22;-3275.50;86.80
44111;DHT22;29774;52.664;5.074;2023-12-07T02:12:48;-3275.50;86.90
44111;DHT22;29774;52.664;5.074;2023-12-07T02:15:14;-3275.50;86.90
44111;DHT22;29774;52.664;5.074;2023-12-07T02:23:14;-3275.50;86.80
44111;DHT22;29774;52.664;5.074;2023-12-07T02:25:54;-3275.50;86.80
44111;DHT22;29774;52.664;5.074;2023-12-07T02:28:20;-3275.40;86.80
44111;DHT22;29774;52.664;5.074;2023-12-07T02:30:46;-3275.40;86.90
44111;DHT22;29774;52.664;5.074;2023-12-07T02:33:12;-3275.40;87.20
44111;DHT22;29774;52.664;5.074;2023-12-07T02:35:38;-3275.60;87.70
44111;DHT22;29774;52.664;5.074;2023-12-07T02:38:06;-3275.80;88.30
44111;DHT22;29774;52.664;5.074;2023-12-07T02:40:33;-3275.80;88.40
44111;DHT22;29774;52.664;5.074;2023-12-07T02:43:00;-3275.90;88.50
44111;DHT22;29774;52.664;5.074;2023-12-07T02:45:26;-3275.90;88.40
44111;DHT22;29774;52.664;5.074;2023-12-07T02:47:53;-3275.70;88.00
44111;DHT22;29774;52.664;5.074;2023-12-07T02:50:19;-3275.60;87.80
44111;DHT22;29774;52.664;5.074;2023-12-07T02:52:44;-3275.50;87.70
44111;DHT22;29774;52.664;5.074;2023-12-07T02:55:10;-3275.60;87.90
44111;DHT22;29774;52.664;5.074;2023-12-07T02:57:36;-3275.60;87.90
44111;DHT22;29774;52.664;5.074;2023-12-07T03:00:03;-3275.50;87.80
44111;DHT22;29774;52.664;5.074;2023-12-07T03:02:38;-3275.50;87.70
44111;DHT22;29774;52.664;5.074;2023-12-07T03:05:04;-3275.40;87.50
44111;DHT22;29774;52.664;5.074;2023-12-07T03:07:30;-3275.30;87.10
44111;DHT22;29774;52.664;5.074;2023-12-07T03:09:56;-3275.40;87.20
44111;DHT22;29774;52.664;5.074;2023-12-07T03:12:22;-3275.40;87.20
44111;DHT22;29774;52.664;5.074;2023-12-07T03:14:48;-3275.50;87.10
44111;DHT22;29774;52.664;5.074;2023-12-07T03:17:14;-3275.50;87.10
44111;DHT22;29774;52.664;5.074;2023-12-07T03:19:40;-3275.50;87.20
44111;DHT22;29774;52.664;5.074;2023-12-07T03:22:07;-3275.50;87.30
44111;DHT22;29774;52.664;5.074;2023-12-07T03:24:36;-3275.50;87.30
44111;DHT22;29774;52.664;5.074;2023-12-07T03:27:02;-3275.50;87.20
44111;DHT22;29774;52.664;5.074;2023-12-07T03:29:28;-3275.40;87.00
44111;DHT22;29774;52.664;5.074;2023-12-07T03:31:54;-3275.40;86.90
44111;DHT22;29774;52.664;5.074;2023-12-07T03:34:19;-3275.30;86.80
44111;DHT22;29774;52.664;5.074;2023-12-07T03:36:46;-3275.20;86.80
44111;DHT22;29774;52.664;5.074;2023-12-07T03:39:13;-3275.20;86.60
44111;DHT22;29774;52.664;5.074;2023-12-07T03:41:39;-3275.20;86.70
44111;DHT22;29774;52.664;5.074;2023-12-07T03:44:05;-3275.30;86.80
44111;DHT22;29774;52.664;5.074;2023-12-07T03:46:30;-3275.20;86.60
44111;DHT22;29774;52.664;5.074;2023-12-07T03:48:56;-3275.20;86.80
44111;DHT22;29774;52.664;5.074;2023-12-07T03:51:22;-3275.20;87.00
44111;DHT22;29774;52.664;5.074;2023-12-07T03:53:47;-3275.20;87.10
44111;DHT22;29774;52.664;5.074;2023-12-07T03:56:29;-3275.10;86.80
44111;DHT22;29774;52.664;5.074;2023-12-07T03:58:55;-3275.10;86.70
44111;DHT22;29774;52.664;5.074;2023-12-07T04:01:23;-3275.10;87.00
44111;DHT22;29774;52.664;5.074;2023-12-07T04:03:49;-3275.10;87.10
44111;DHT22;29774;52.664;5.074;2023-12-07T04:06:15;-3275.10;86.90
44111;DHT22;29774;52.664;5.074;2023-12-07T04:08:40;-3275.10;87.00
44111;DHT22;29774;52.664;5.074;2023-12-07T04:11:06;-3275.10;86.70
44111;DHT22;29774;52.664;5.074;2023-12-07T04:13:31;-3275.00;86.50
44111;DHT22;29774;52.664;5.074;2023-12-07T04:15:57;-3275.00;86.50
44111;DHT22;29774;52.664;5.074;2023-12-07T04:18:22;-3274.90;86.40
44111;DHT22;29774;52.664;5.074;2023-12-07T04:20:48;-3274.90;86.50
44111;DHT22;29774;52.664;5.074;2023-12-07T04:23:14;-3274.80;86.50
44111;DHT22;29774;52.664;5.074;2023-12-07T04:25:39;-3274.90;86.70
44111;DHT22;29774;52.664;5.074;2023-12-07T04:28:05;-3274.90;87.00
44111;DHT22;29774;52.664;5.074;2023-12-07T04:30:31;-3275.00;87.10
44111;DHT22;29774;52.664;5.074;2023-12-07T04:32:56;-3274.90;86.90
44111;DHT22;29774;52.664;5.074;2023-12-07T04:35:22;-3274.80;86.70
44111;DHT22;29774;52.664;5.074;2023-12-07T04:37:47;-3274.80;86.70
44111;DHT22;29774;52.664;5.074;2023-12-07T04:40:13;-3274.80;86.80
44111;DHT22;29774;52.664;5.074;2023-12-07T04:42:39;-3274.80;86.50
44111;DHT22;29774;52.664;5.074;2023-12-07T04:45:05;-3274.70;86.20
44111;DHT22;29774;52.664;5.074;2023-12-07T04:47:32;-3274.70;86.10
44111;DHT22;29774;52.664;5.074;2023-12-07T04:49:58;-3274.70;86.10
44111;DHT22;29774;52.664;5.074;2023-12-07T04:52:24;-3274.70;86.60
44111;DHT22;29774;52.664;5.074;2023-12-07T04:54:49;-3274.90;87.10
44111;DHT22;29774;52.664;5.074;2023-12-07T04:57:15;-3274.90;87.30
44111;DHT22;29774;52.664;5.074;2023-12-07T04:59:41;-3275.10;87.80
44111;DHT22;29774;52.664;5.074;2023-12-07T05:02:06;-3275.20;88.20
44111;DHT22;29774;52.664;5.074;2023-12-07T05:04:32;-3275.10;87.90
44111;DHT22;29774;52.664;5.074;2023-12-07T05:06:59;-3275.00;87.60
44111;DHT22;29774;52.664;5.074;2023-12-07T05:09:25;-3274.90;87.20
44111;DHT22;29774;52.664;5.074;2023-12-07T05:11:51;-3274.80;87.10
44111;DHT22;29774;52.664;5.074;2023-12-07T05:14:17;-3274.80;86.90
44111;DHT22;29774;52.664;5.074;2023-12-07T05:16:42;-3274.70;86.80
44111;DHT22;29774;52.664;5.074;2023-12-07T05:19:08;-3274.80;87.00
44111;DHT22;29774;52.664;5.074;2023-12-07T05:21:34;-3274.70;87.00
44111;DHT22;29774;52.664;5.074;2023-12-07T05:24:01;-3274.80;87.00
44111;DHT22;29774;52.664;5.074;2023-12-07T05:26:26;-3274.80;87.00
44111;DHT22;29774;52.664;5.074;2023-12-07T05:28:52;-3274.80;86.80
44111;DHT22;29774;52.664;5.074;2023-12-07T05:31:18;-3274.80;86.50
44111;DHT22;29774;52.664;5.074;2023-12-07T05:33:44;-3274.70;86.30
44111;DHT22;29774;52.664;5.074;2023-12-07T05:36:10;-3274.70;86.50
44111;DHT22;29774;52.664;5.074;2023-12-07T05:38:35;-3274.60;86.60
44111;DHT22;29774;52.664;5.074;2023-12-07T05:41:01;-3274.80;87.10
44111;DHT22;29774;52.664;5.074;2023-12-07T05:43:27;-3274.90;87.50
44111;DHT22;29774;52.664;5.074;2023-12-07T05:45:52;-3275.00;87.80
44111;DHT22;29774;52.664;5.074;2023-12-07T05:48:18;-3275.00;87.70
44111;DHT22;29774;52.664;5.074;2023-12-07T05:50:43;-3274.90;87.50
44111;DHT22;29774;52.664;5.074;2023-12-07T05:53:09;-3274.80;87.30
44111;DHT22;29774;52.664;5.074;2023-12-07T05:55:36;-3274.90;87.60
44111;DHT22;29774;52.664;5.074;2023-12-07T05:58:01;-3274.90;87.50
44111;DHT22;29774;52.664;5.074;2023-12-07T06:00:30;-3274.90;87.60
44111;DHT22;29774;52.664;5.074;2023-12-07T06:02:55;-3274.90;87.60
44111;DHT22;29774;52.664;5.074;2023-12-07T06:05:21;-3274.80;87.30
44111;DHT22;29774;52.664;5.074;2023-12-07T06:07:47;-3274.80;87.50
44111;DHT22;29774;52.664;5.074;2023-12-07T06:10:12;-3274.80;87.30
44111;DHT22;29774;52.664;5.074;2023-12-07T06:12:38;-3274.80;87.30
44111;DHT22;29774;52.664;5.074;2023-12-07T06:15:05;-3275.00;88.00
44111;DHT22;29774;52.664;5.074;2023-12-07T06:17:33;-3275.10;88.10
44111;DHT22;29774;52.664;5.074;2023-12-07T06:19:59;-3275.30;88.70
44111;DHT22;29774;52.664;5.074;2023-12-07T06:22:25;-3275.40;88.80
44111;DHT22;29774;52.664;5.074;2023-12-07T06:24:50;-3275.30;88.50
44111;DHT22;29774;52.664;5.074;2023-12-07T06:27:16;-3275.20;88.10
44111;DHT22;29774;52.664;5.074;2023-12-07T06:29:41;-3275.10;88.00
44111;DHT22;29774;52.664;5.074;2023-12-07T06:32:07;-3275.00;88.00
44111;DHT22;29774;52.664;5.074;2023-12-07T06:34:32;-3275.10;88.10
44111;DHT22;29774;52.664;5.074;2023-12-07T06:36:58;-3275.10;88.10
44111;DHT22;29774;52.664;5.074;2023-12-07T06:39:23;-3275.10;88.00
44111;DHT22;29774;52.664;5.074;2023-12-07T06:41:49;-3275.20;88.30
44111;DHT22;29774;52.664;5.074;2023-12-07T06:44:15;-3275.40;88.60
44111;DHT22;29774;52.664;5.074;2023-12-07T06:46:40;-3275.50;89.00
44111;DHT22;29774;52.664;5.074;2023-12-07T06:49:06;-3275.50;88.90
44111;DHT22;29774;52.664;5.074;2023-12-07T06:51:31;-3275.40;88.90
44111;DHT22;29774;52.664;5.074;2023-12-07T06:53:57;-3275.60;89.40
44111;DHT22;29774;52.664;5.074;2023-12-07T06:56:23;-3275.70;89.60
44111;DHT22;29774;52.664;5.074;2023-12-07T06:58:48;-3276.00;90.00
44111;DHT22;29774;52.664;5.074;2023-12-07T07:01:14;-3276.10;90.20
44111;DHT22;29774;52.664;5.074;2023-12-07T07:03:39;-3276.00;89.90
44111;DHT22;29774;52.664;5.074;2023-12-07T07:06:05;-3275.80;89.80
44111;DHT22;29774;52.664;5.074;2023-12-07T07:08:30;-3275.80;89.90
44111;DHT22;29774;52.664;5.074;2023-12-07T07:10:56;-3275.80;90.00
44111;DHT22;29774;52.664;5.074;2023-12-07T07:13:22;-3275.80;90.00
44111;DHT22;29774;52.664;5.074;2023-12-07T07:15:47;-3275.80;90.10
44111;DHT22;29774;52.664;5.074;2023-12-07T07:18:16;-3276.00;90.40
44111;DHT22;29774;52.664;5.074;2023-12-07T07:20:41;-3276.20;90.50
44111;DHT22;29774;52.664;5.074;2023-12-07T07:23:07;-3276.10;90.40
44111;DHT22;29774;52.664;5.074;2023-12-07T07:25:34;-3276.20;90.50
44111;DHT22;29774;52.664;5.074;2023-12-07T07:28:00;-3276.10;90.60
44111;DHT22;29774;52.664;5.074;2023-12-07T07:30:25;-3276.20;90.60
44111;DHT22;29774;52.664;5.074;2023-12-07T07:32:52;-3276.20;90.60
44111;DHT22;29774;52.664;5.074;2023-12-07T07:35:17;-3276.30;90.70
44111;DHT22;29774;52.664;5.074;2023-12-07T07:37:43;-3276.40;90.80
44111;DHT22;29774;52.664;5.074;2023-12-07T07:40:09;-3276.30;90.70
44111;DHT22;29774;52.664;5.074;2023-12-07T07:42:37;-3276.20;90.60
44111;DHT22;29774;52.664;5.074;2023-12-07T07:45:05;-3276.30;90.80
44111;DHT22;29774;52.664;5.074;2023-12-07T07:47:31;-3276.40;90.80
44111;DHT22;29774;52.664;5.074;2023-12-07T07:49:57;-3276.50;91.00
44111;DHT22;29774;52.664;5.074;2023-12-07T07:52:24;-3276.50;90.90
44111;DHT22;29774;52.664;5.074;2023-12-07T07:54:49;-3276.50;90.90
44111;DHT22;29774;52.664;5.074;2023-12-07T07:57:15;-3276.60;91.00
44111;DHT22;29774;52.664;5.074;2023-12-07T07:59:40;-3276.50;90.90
44111;DHT22;29774;52.664;5.074;2023-12-07T08:02:06;-3276.50;90.90
44111;DHT22;29774;52.664;5.074;2023-12-07T08:04:31;-3276.50;90.90
44111;DHT22;29774;52.664;5.074;2023-12-07T08:06:57;-3276.40;90.90
44111;DHT22;29774;52.664;5.074;2023-12-07T08:09:23;-3276.60;91.00
44111;DHT22;29774;52.664;5.074;2023-12-07T08:11:49;0.00;91.30
44111;DHT22;29774;52.664;5.074;2023-12-07T08:14:14;0.20;91.50
44111;DHT22;29774;52.664;5.074;2023-12-07T08:16:46;0.40;91.60
44111;DHT22;29774;52.664;5.074;2023-12-07T08:19:12;0.40;91.70
44111;DHT22;29774;52.664;5.074;2023-12-07T08:21:38;0.60;91.70
44111;DHT22;29774;52.664;5.074;2023-12-07T08:24:04;0.60;91.80
44111;DHT22;29774;52.664;5.074;2023-12-07T08:26:31;0.60;91.80
44111;DHT22;29774;52.664;5.074;2023-12-07T08:28:57;0.70;91.90
44111;DHT22;29774;52.664;5.074;2023-12-07T08:31:23;0.70;91.80
44111;DHT22;29774;52.664;5.074;2023-12-07T08:33:52;0.90;91.90
44111;DHT22;29774;52.664;5.074;2023-12-07T08:36:17;1.10;91.80
44111;DHT22;29774;52.664;5.074;2023-12-07T08:38:43;1.20;91.70
44111;DHT22;29774;52.664;5.074;2023-12-07T08:41:09;1.40;91.60
44111;DHT22;29774;52.664;5.074;2023-12-07T08:43:34;1.20;91.40
44111;DHT22;29774;52.664;5.074;2023-12-07T08:46:00;1.00;91.50
44111;DHT22;29774;52.664;5.074;2023-12-07T08:48:25;0.90;91.60
44111;DHT22;29774;52.664;5.074;2023-12-07T08:50:51;0.90;91.70
44111;DHT22;29774;52.664;5.074;2023-12-07T08:53:17;0.90;91.70
44111;DHT22;29774;52.664;5.074;2023-12-07T08:55:42;0.80;91.70
44111;DHT22;29774;52.664;5.074;2023-12-07T08:58:08;0.80;91.70
44111;DHT22;29774;52.664;5.074;2023-12-07T09:00:37;0.90;91.80
44111;DHT22;29774;52.664;5.074;2023-12-07T09:03:04;0.90;91.80
44111;DHT22;29774;52.664;5.074;2023-12-07T09:05:29;0.80;91.80
44111;DHT22;29774;52.664;5.074;2023-12-07T09:07:58;0.80;91.80
44111;DHT22;29774;52.664;5.074;2023-12-07T09:10:24;0.80;91.90
44111;DHT22;29774;52.664;5.074;2023-12-07T09:12:49;0.80;91.90
44111;DHT22;29774;52.664;5.074;2023-12-07T09:15:15;0.90;92.00
44111;DHT22;29774;52.664;5.074;2023-12-07T09:17:41;1.00;92.00
44111;DHT22;29774;52.664;5.074;2023-12-07T09:20:10;1.20;91.90
44111;DHT22;29774;52.664;5.074;2023-12-07T09:22:42;1.10;91.90
44111;DHT22;29774;52.664;5.074;2023-12-07T09:25:08;1.10;91.90
44111;DHT22;29774;52.664;5.074;2023-12-07T09:27:34;1.00;91.90
44111;DHT22;29774;52.664;5.074;2023-12-07T09:30:04;1.00;92.00
44111;DHT22;29774;52.664;5.074;2023-12-07T09:32:30;1.00;92.00
44111;DHT22;29774;52.664;5.074;2023-12-07T09:34:55;1.10;92.10
44111;DHT22;29774;52.664;5.074;2023-12-07T09:37:21;1.10;92.10
44111;DHT22;29774;52.664;5.074;2023-12-07T09:39:47;1.10;92.10
44111;DHT22;29774;52.664;5.074;2023-12-07T09:42:13;1.10;92.10
44111;DHT22;29774;52.664;5.074;2023-12-07T09:44:38;1.10;92.20
44111;DHT22;29774;52.664;5.074;2023-12-07T09:47:05;1.40;92.10
44111;DHT22;29774;52.664;5.074;2023-12-07T09:49:31;1.40;92.10
44111;DHT22;29774;52.664;5.074;2023-12-07T09:51:58;1.50;92.00
44111;DHT22;29774;52.664;5.074;2023-12-07T09:54:25;1.40;91.90
44111;DHT22;29774;52.664;5.074;2023-12-07T09:56:51;1.30;91.90
44111;DHT22;29774;52.664;5.074;2023-12-07T09:59:20;1.20;91.90
44111;DHT22;29774;52.664;5.074;2023-12-07T10:01:45;1.20;92.00
44111;DHT22;29774;52.664;5.074;2023-12-07T10:04:21;1.20;92.10
44111;DHT22;29774;52.664;5.074;2023-12-07T10:06:49;1.20;92.20
44111;DHT22;29774;52.664;5.074;2023-12-07T10:09:15;1.20;92.20
44111;DHT22;29774;52.664;5.074;2023-12-07T10:11:41;1.20;92.20
44111;DHT22;29774;52.664;5.074;2023-12-07T10:14:09;1.20;92.30
44111;DHT22;29774;52.664;5.074;2023-12-07T10:16:34;1.20;92.30
44111;DHT22;29774;52.664;5.074;2023-12-07T10:19:16;1.20;92.30
44111;DHT22;29774;52.664;5.074;2023-12-07T10:21:50;1.20;92.30
44111;DHT22;29774;52.664;5.074;2023-12-07T10:24:17;1.20;92.40
44111;DHT22;29774;52.664;5.074;2023-12-07T10:26:44;1.20;92.30
44111;DHT22;29774;52.664;5.074;2023-12-07T10:29:11;1.20;92.30
44111;DHT22;29774;52.664;5.074;2023-12-07T10:31:37;1.20;92.30
44111;DHT22;29774;52.664;5.074;2023-12-07T10:34:03;1.70;92.20
44111;DHT22;29774;52.664;5.074;2023-12-07T10:36:30;2.00;92.20
44111;DHT22;29774;52.664;5.074;2023-12-07T10:38:56;1.90;92.10
44111;DHT22;29774;52.664;5.074;2023-12-07T10:41:23;2.00;92.10
44111;DHT22;29774;52.664;5.074;2023-12-07T10:43:53;2.20;92.10
44111;DHT22;29774;52.664;5.074;2023-12-07T10:46:21;1.80;91.80
44111;DHT22;29774;52.664;5.074;2023-12-07T10:48:55;1.50;91.80
44111;DHT22;29774;52.664;5.074;2023-12-07T10:54:22;1.40;91.80
44111;DHT22;29774;52.664;5.074;2023-12-07T10:56:48;1.40;91.90
44111;DHT22;29774;52.664;5.074;2023-12-07T10:59:16;1.40;91.80
44111;DHT22;29774;52.664;5.074;2023-12-07T11:01:43;1.30;91.80
44111;DHT22;29774;52.664;5.074;2023-12-07T11:04:13;1.30;91.70
44111;DHT22;29774;52.664;5.074;2023-12-07T11:06:40;1.30;91.80
44111;DHT22;29774;52.664;5.074;2023-12-07T11:09:10;1.40;91.70
44111;DHT22;29774;52.664;5.074;2023-12-07T11:12:01;1.30;91.70
44111;DHT22;29774;52.664;5.074;2023-12-07T11:14:28;1.40;91.60
44111;DHT22;29774;52.664;5.074;2023-12-07T11:16:56;1.40;91.60
44111;DHT22;29774;52.664;5.074;2023-12-07T11:22:06;1.40;91.30
44111;DHT22;29774;52.664;5.074;2023-12-07T11:24:32;1.40;91.30
44111;DHT22;29774;52.664;5.074;2023-12-07T11:26:58;1.20;91.40
44111;DHT22;29774;52.664;5.074;2023-12-07T11:29:25;1.20;91.40
44111;DHT22;29774;52.664;5.074;2023-12-07T11:31:52;1.10;91.50
44111;DHT22;29774;52.664;5.074;2023-12-07T11:34:36;1.20;91.60
44111;DHT22;29774;52.664;5.074;2023-12-07T11:37:03;1.20;91.60
44111;DHT22;29774;52.664;5.074;2023-12-07T11:39:30;1.20;91.60
44111;DHT22;29774;52.664;5.074;2023-12-07T11:42:14;1.20;91.60
44111;DHT22;29774;52.664;5.074;2023-12-07T11:44:42;1.40;91.60
44111;DHT22;29774;52.664;5.074;2023-12-07T11:47:09;1.40;91.40
44111;DHT22;29774;52.664;5.074;2023-12-07T11:49:35;1.50;91.40
44111;DHT22;29774;52.664;5.074;2023-12-07T11:52:11;1.40;91.40
44111;DHT22;29774;52.664;5.074;2023-12-07T11:54:37;1.30;91.30
44111;DHT22;29774;52.664;5.074;2023-12-07T11:57:03;1.20;91.30
44111;DHT22;29774;52.664;5.074;2023-12-07T11:59:29;1.20;91.40
44111;DHT22;29774;52.664;5.074;2023-12-07T12:01:55;1.20;91.50
44111;DHT22;29774;52.664;5.074;2023-12-07T12:04:21;1.40;91.50
44111;DHT22;29774;52.664;5.074;2023-12-07T12:06:47;1.30;91.40
44111;DHT22;29774;52.664;5.074;2023-12-07T12:09:16;1.30;91.40
44111;DHT22;29774;52.664;5.074;2023-12-07T12:11:45;1.30;91.50
44111;DHT22;29774;52.664;5.074;2023-12-07T12:14:16;1.40;91.40
44111;DHT22;29774;52.664;5.074;2023-12-07T12:16:46;1.40;91.40
44111;DHT22;29774;52.664;5.074;2023-12-07T12:19:12;1.40;91.40
44111;DHT22;29774;52.664;5.074;2023-12-07T12:21:42;1.70;91.40
44111;DHT22;29774;52.664;5.074;2023-12-07T12:24:09;1.60;91.30
44111;DHT22;29774;52.664;5.074;2023-12-07T12:26:39;1.50;91.10
44111;DHT22;29774;52.664;5.074;2023-12-07T12:29:08;1.50;91.20
44111;DHT22;29774;52.664;5.074;2023-12-07T12:31:38;1.40;91.20
44111;DHT22;29774;52.664;5.074;2023-12-07T12:34:07;1.30;91.20
44111;DHT22;29774;52.664;5.074;2023-12-07T12:36:34;1.30;91.20
44111;DHT22;29774;52.664;5.074;2023-12-07T12:39:00;1.30;91.30
44111;DHT22;29774;52.664;5.074;2023-12-07T12:41:27;1.30;91.30
44111;DHT22;29774;52.664;5.074;2023-12-07T12:43:56;1.30;91.30
44111;DHT22;29774;52.664;5.074;2023-12-07T12:46:22;1.20;91.30
44111;DHT22;29774;52.664;5.074;2023-12-07T12:51:20;1.20;91.30
44111;DHT22;29774;52.664;5.074;2023-12-07T12:53:47;1.20;91.30
44111;DHT22;29774;52.664;5.074;2023-12-07T12:56:14;1.20;91.20
44111;DHT22;29774;52.664;5.074;2023-12-07T12:58:40;1.20;91.20
44111;DHT22;29774;52.664;5.074;2023-12-07T13:01:06;1.20;91.30
44111;DHT22;29774;52.664;5.074;2023-12-07T13:03:32;1.20;91.20
44111;DHT22;29774;52.664;5.074;2023-12-07T13:05:58;1.20;91.30
44111;DHT22;29774;52.664;5.074;2023-12-07T13:08:23;1.20;91.30
44111;DHT22;29774;52.664;5.074;2023-12-07T13:10:49;1.20;91.30
44111;DHT22;29774;52.664;5.074;2023-12-07T13:13:15;1.60;91.30
44111;DHT22;29774;52.664;5.074;2023-12-07T13:15:41;1.50;91.00
44111;DHT22;29774;52.664;5.074;2023-12-07T13:18:07;1.40;91.10
44111;DHT22;29774;52.664;5.074;2023-12-07T13:20:34;1.30;91.10
44111;DHT22;29774;52.664;5.074;2023-12-07T13:23:02;1.20;91.10
44111;DHT22;29774;52.664;5.074;2023-12-07T13:25:28;1.20;91.20
44111;DHT22;29774;52.664;5.074;2023-12-07T13:27:54;1.10;91.30
44111;DHT22;29774;52.664;5.074;2023-12-07T13:30:20;1.10;91.30
44111;DHT22;29774;52.664;5.074;2023-12-07T13:32:45;1.10;91.40
44111;DHT22;29774;52.664;5.074;2023-12-07T13:35:11;1.10;91.50
44111;DHT22;29774;52.664;5.074;2023-12-07T13:37:38;1.20;91.50
44111;DHT22;29774;52.664;5.074;2023-12-07T13:40:04;1.10;91.50
44111;DHT22;29774;52.664;5.074;2023-12-07T13:42:36;1.10;91.60
44111;DHT22;29774;52.664;5.074;2023-12-07T13:45:02;1.00;91.60
44111;DHT22;29774;52.664;5.074;2023-12-07T13:47:28;1.10;91.70
44111;DHT22;29774;52.664;5.074;2023-12-07T13:50:00;1.00;91.70
44111;DHT22;29774;52.664;5.074;2023-12-07T13:52:26;1.10;91.70
44111;DHT22;29774;52.664;5.074;2023-12-07T13:54:54;1.20;91.70
44111;DHT22;29774;52.664;5.074;2023-12-07T13:57:20;1.20;91.80
44111;DHT22;29774;52.664;5.074;2023-12-07T13:59:46;1.20;91.80
44111;DHT22;29774;52.664;5.074;2023-12-07T14:02:12;1.30;91.80
44111;DHT22;29774;52.664;5.074;2023-12-07T14:04:38;1.30;91.70
44111;DHT22;29774;52.664;5.074;2023-12-07T14:07:08;1.30;91.80
44111;DHT22;29774;52.664;5.074;2023-12-07T14:09:35;1.30;91.80
44111;DHT22;29774;52.664;5.074;2023-12-07T14:12:02;1.30;91.80
44111;DHT22;29774;52.664;5.074;2023-12-07T14:14:27;1.30;91.80
44111;DHT22;29774;52.664;5.074;2023-12-07T14:16:53;1.20;91.80
44111;DHT22;29774;52.664;5.074;2023-12-07T14:19:19;1.20;91.80
44111;DHT22;29774;52.664;5.074;2023-12-07T14:21:45;1.20;91.80
44111;DHT22;29774;52.664;5.074;2023-12-07T14:24:11;1.20;91.90
44111;DHT22;29774;52.664;5.074;2023-12-07T14:26:36;1.30;91.90
44111;DHT22;29774;52.664;5.074;2023-12-07T14:29:02;1.20;91.90
44111;DHT22;29774;52.664;5.074;2023-12-07T14:31:27;1.20;91.90
44111;DHT22;29774;52.664;5.074;2023-12-07T14:33:53;1.20;91.90
44111;DHT22;29774;52.664;5.074;2023-12-07T14:36:20;1.20;91.90
44111;DHT22;29774;52.664;5.074;2023-12-07T14:38:46;1.20;92.00
44111;DHT22;29774;52.664;5.074;2023-12-07T14:41:12;1.20;92.00
44111;DHT22;29774;52.664;5.074;2023-12-07T14:43:38;1.20;92.00
44111;DHT22;29774;52.664;5.074;2023-12-07T14:46:06;1.20;92.00
44111;DHT22;29774;52.664;5.074;2023-12-07T14:48:33;1.20;92.00
44111;DHT22;29774;52.664;5.074;2023-12-07T14:50:58;1.20;92.10
44111;DHT22;29774;52.664;5.074;2023-12-07T14:53:24;1.20;92.10
44111;DHT22;29774;52.664;5.074;2023-12-07T14:55:51;1.20;92.20
44111;DHT22;29774;52.664;5.074;2023-12-07T14:58:17;1.20;92.20
44111;DHT22;29774;52.664;5.074;2023-12-07T15:00:42;1.20;92.20
44111;DHT22;29774;52.664;5.074;2023-12-07T15:03:08;1.20;92.20
44111;DHT22;29774;52.664;5.074;2023-12-07T15:05:33;1.20;92.20
44111;DHT22;29774;52.664;5.074;2023-12-07T15:07:59;1.20;92.20
44111;DHT22;29774;52.664;5.074;2023-12-07T15:10:25;1.20;92.20
44111;DHT22;29774;52.664;5.074;2023-12-07T15:12:50;1.20;92.20
44111;DHT22;29774;52.664;5.074;2023-12-07T15:15:17;1.20;92.30
44111;DHT22;29774;52.664;5.074;2023-12-07T15:17:42;1.30;92.30
44111;DHT22;29774;52.664;5.074;2023-12-07T15:20:08;1.30;92.30
44111;DHT22;29774;52.664;5.074;2023-12-07T15:22:35;1.30;92.30
44111;DHT22;29774;52.664;5.074;2023-12-07T15:25:01;1.30;92.30